Terminal Aerodrome Forecast
Issued by NWS Cleveland, OH

Home | Current Version | Previous Version | Graphics & Text | Print | Product List | Glossary On
Versions: 1 2 3 4 5 6 7 8 9 10 11 12 13 14 15 16 17 18 19 20
000
FTUS41 KCLE 300253 AAA
TAFTOL
TAF AMD
KTOL 300253Z 3003/3024 34004KT 4SM -SHRA BR SCT040 BKN070
     FM300800 VRB03KT 4SM BR BKN035 OVC080
     FM301400 22005KT 6SM HZ VCSH BKN040
     FM301900 23007KT P6SM SCT050=

USA.gov is the U.S. government's official web portal to all federal, state and local government web resources and services.